Relevés horaires St-Hubert (Belgique)


Relevés horaires à St-Hubert - Dimanche 13 Juin 2021
Heure UTC1 Température [°C] Vent [km/h] Hum. [%] Pres.4 [hPa] Visi. [Km] Nébu. [octa] Préc.5 [mm] Cond.
2m. Res. Ros. Dir.2 Vit. Moy. Raf.3
23:00 12.1 11.6 8.6 E 7.4 7.4 9.3 79 1025.3(-0.5/3h) 40 0/8 -- --
22:00 12.7 12.3 9.2 ENE 7.4 7.4 9.3 79 1025.3(-0.6/3h) 35 0/8 -- --
21:00 14.7 14.7 9.1 ENE 5.6 7.4 11.1 69 1025.1(-0.7/3h) 35 0/8 -- --
20:00 16.5 16.5 8.9 NE 7.4 7.4 9.3 61 1024.9(-0.5/3h) 40 0/8 -- --
19:00 18.8 18.8 9.5 NE 7.4 7.4 11.1 55 1024.5(-0.7/3h) 35 0/8 -- --
18:00 20.7 20.7 9.1 NNE 7.4 7.4 11.1 47 1024.4(-0.8/3h) 35 0/8 0/12h
--
17:00 21.5 21.5 9.1 NE 5.6 5.6 11.1 45 1024.3(-1.0/3h) 35 0/8 -- --
16:00 21.8 21.8 8.7 N 3.7 5.6 11.1 43 1024.6(-0.9/3h) 30 0/8 -- --
15:00 21.4 21.4 7.4 N 3.7 5.6 11.1 40 1025.2(-0.9/3h) 35 0/8 -- --
14:00 20.7 20.7 7.4 NNO 3.7 5.6 9.3 42 1025.6(-0.9/3h) 30 0/8 -- --
13:00 19.9 19.9 7.0 NNO 3.7 5.6 11.1 43 1026(-0.7/3h) 30 0/8 -- --
12:00 19.8 19.8 7.7 NNO 3.7 7.4 13.0 46 1026.5(-0.2/3h) 30 0/8 0/6h
--
11:00 18.0 18.0 8.9 NO 5.6 5.6 11.1 55 1027.1(0.1/3h) 28 0/8 -- --
10:00 17.4 17.4 6.4 NNO 1.9 1.9 5.6 48 1027.4(0.5/3h) 35 0/8 -- --
09:00 15.5 15.5 5.9 ENE 1.9 5.6 9.3 53 1027.8(1.0/3h) 30 0/8 -- --
08:00 13.6 13.6 5.6 N 3.7 5.6 9.3 58 1028(1.4/3h) 30 0/8 -- --
07:00 11.8 11.6 7.9 ENE 5.6 5.6 9.3 77 1028(1.5/3h) 21 0/8 -- --
06:00 10.8 10.5 8.2 ENE 5.6 7.4 9.3 84 1027.7(1.2/3h) 13 0/8 0/12h
--
05:00 9.1 8.1 7.5 NE 7.4 7.4 9.3 90 1027.6(0.4/3h) -- 0/8 -- --
04:00 8.1 7.4 7.2 NNE 5.6 7.4 7.4 94 1027.3(-0.4/3h) -- 0/8 -- --
03:00 9.1 8.6 7.6 NNE 5.6 7.4 9.3 90 1026.8(-0.7/3h) 10 0/8 -- --
02:00 9.2 8.7 7.4 N 5.6 7.4 9.3 88 1027.1(0.1/3h) 16 0/8 -- --
01:00 9.8 9.4 7.6 NNE 5.6 7.4 9.3 86 1027.3(0.5/3h) 26 0/8 -- --
00:00 10.3 9.5 7.6 NNE 7.4 9.3 14.8 83 1027.3(0.9/3h) 30 0/8 0/6h
0/24h
--

1 Coordinated Universal Time. Actuellement il est 04:00 locale et 03:00 UTC.

2 Le vent souffle depuis la direction indiquée vers la direction oposée.

3 Les rafales max. sont disponible 40 min après l'heure du relevé.

4 Pour les stations d'altitude (plus de 600m) le géopotentiel du niveau le plus proche de la pression obligatoire est indiqué.

5 Les stations disposant d'un diffuseur peuvent indiquer "trace". Cela signifie que des précipitations ont touchés le sol mais que la quantité est inférieure à 0.1 mm.

Récapitulatif de la journée
Température [°C] Vent [km/h] Ensoleillement4 [h] Precipitations totale5 [mm] Pression [Hpa]
Min1 Max.2 Moy.3 Max. Min Max.
8.0 21.8 6.6 14.8 0 h 0 min 0 1024.3 1028.0

1 Température minimale relevée entre 18:00 UTC la veille et 18:00 UTC le jour donné.

2 Température maximale relevée entre 06:00 UTC le jour donné et 06:00 UTC le lendemain.

3 Vent moyen de la journée basé sur les relevés horaires.

4 Ensoleillement en heures relevé entre 06:00 UTC la veille et 06:00 UTC le jour donné.

5 Précipitations totales tombées entre 06:00 UTC la jour donné et 06:00 UTC le lendemain.

Graphiques horaires